sensor_id;sensor_type;location;lat;lon;timestamp;P1;durP1;ratioP1;P2;durP2;ratioP2
34926;SDS011;21132;48.308;14.274;2022-07-23T00:01:21;9.88;;;8.43;;
34926;SDS011;21132;48.308;14.274;2022-07-23T00:03:47;9.57;;;8.52;;
34926;SDS011;21132;48.308;14.274;2022-07-23T00:06:13;11.32;;;9.07;;
34926;SDS011;21132;48.308;14.274;2022-07-23T00:08:39;9.80;;;7.60;;
34926;SDS011;21132;48.308;14.274;2022-07-23T00:11:05;8.35;;;7.50;;
34926;SDS011;21132;48.308;14.274;2022-07-23T00:13:31;9.52;;;8.23;;
34926;SDS011;21132;48.308;14.274;2022-07-23T00:15:56;10.70;;;9.63;;
34926;SDS011;21132;48.308;14.274;2022-07-23T00:18:22;9.38;;;7.82;;
34926;SDS011;21132;48.308;14.274;2022-07-23T00:20:48;14.98;;;8.07;;
34926;SDS011;21132;48.308;14.274;2022-07-23T00:23:14;8.73;;;7.45;;
34926;SDS011;21132;48.308;14.274;2022-07-23T00:25:40;8.70;;;7.80;;
34926;SDS011;21132;48.308;14.274;2022-07-23T00:28:06;10.02;;;7.00;;
34926;SDS011;21132;48.308;14.274;2022-07-23T00:30:32;13.55;;;7.38;;
34926;SDS011;21132;48.308;14.274;2022-07-23T00:33:02;9.77;;;7.55;;
34926;SDS011;21132;48.308;14.274;2022-07-23T00:35:31;10.93;;;7.80;;
34926;SDS011;21132;48.308;14.274;2022-07-23T00:37:58;9.55;;;7.72;;
34926;SDS011;21132;48.308;14.274;2022-07-23T00:40:25;9.40;;;7.07;;
34926;SDS011;21132;48.308;14.274;2022-07-23T00:42:51;10.93;;;8.00;;
34926;SDS011;21132;48.308;14.274;2022-07-23T00:45:17;8.27;;;7.15;;
34926;SDS011;21132;48.308;14.274;2022-07-23T00:47:43;7.60;;;6.80;;
34926;SDS011;21132;48.308;14.274;2022-07-23T00:50:09;8.70;;;7.53;;
34926;SDS011;21132;48.308;14.274;2022-07-23T00:52:36;9.93;;;7.80;;
34926;SDS011;21132;48.308;14.274;2022-07-23T00:55:03;8.27;;;7.05;;
34926;SDS011;21132;48.308;14.274;2022-07-23T00:57:29;10.52;;;7.45;;
34926;SDS011;21132;48.308;14.274;2022-07-23T00:59:55;9.05;;;7.93;;
34926;SDS011;21132;48.308;14.274;2022-07-23T01:02:23;9.80;;;7.72;;
34926;SDS011;21132;48.308;14.274;2022-07-23T01:04:49;11.98;;;9.05;;
34926;SDS011;21132;48.308;14.274;2022-07-23T01:07:15;10.45;;;8.40;;
34926;SDS011;21132;48.308;14.274;2022-07-23T01:09:43;13.18;;;7.80;;
34926;SDS011;21132;48.308;14.274;2022-07-23T01:12:10;12.90;;;9.30;;
34926;SDS011;21132;48.308;14.274;2022-07-23T01:14:36;9.50;;;8.13;;
34926;SDS011;21132;48.308;14.274;2022-07-23T01:17:02;10.82;;;7.65;;
34926;SDS011;21132;48.308;14.274;2022-07-23T01:19:28;7.97;;;7.18;;
34926;SDS011;21132;48.308;14.274;2022-07-23T01:21:54;9.40;;;8.35;;
34926;SDS011;21132;48.308;14.274;2022-07-23T01:24:23;8.68;;;7.60;;
34926;SDS011;21132;48.308;14.274;2022-07-23T01:26:49;8.77;;;7.88;;
34926;SDS011;21132;48.308;14.274;2022-07-23T01:29:15;9.07;;;7.38;;
34926;SDS011;21132;48.308;14.274;2022-07-23T01:31:42;9.25;;;7.10;;
34926;SDS011;21132;48.308;14.274;2022-07-23T01:34:09;8.32;;;7.43;;
34926;SDS011;21132;48.308;14.274;2022-07-23T01:36:35;11.27;;;8.95;;
34926;SDS011;21132;48.308;14.274;2022-07-23T01:39:02;10.15;;;7.80;;
34926;SDS011;21132;48.308;14.274;2022-07-23T01:41:29;9.60;;;8.07;;
34926;SDS011;21132;48.308;14.274;2022-07-23T01:43:55;10.05;;;7.63;;
34926;SDS011;21132;48.308;14.274;2022-07-23T01:46:21;7.80;;;7.10;;
34926;SDS011;21132;48.308;14.274;2022-07-23T01:48:47;7.53;;;6.72;;
34926;SDS011;21132;48.308;14.274;2022-07-23T01:51:13;12.98;;;7.97;;
34926;SDS011;21132;48.308;14.274;2022-07-23T01:53:39;9.98;;;7.50;;
34926;SDS011;21132;48.308;14.274;2022-07-23T01:56:05;11.32;;;8.27;;
34926;SDS011;21132;48.308;14.274;2022-07-23T01:58:33;8.73;;;7.43;;
34926;SDS011;21132;48.308;14.274;2022-07-23T02:00:58;8.18;;;7.22;;
34926;SDS011;21132;48.308;14.274;2022-07-23T02:03:25;7.13;;;6.43;;
34926;SDS011;21132;48.308;14.274;2022-07-23T02:05:51;7.10;;;6.38;;
34926;SDS011;21132;48.308;14.274;2022-07-23T02:08:17;8.30;;;7.03;;
34926;SDS011;21132;48.308;14.274;2022-07-23T02:10:43;10.27;;;8.50;;
34926;SDS011;21132;48.308;14.274;2022-07-23T02:13:10;8.40;;;7.45;;
34926;SDS011;21132;48.308;14.274;2022-07-23T02:15:36;7.65;;;6.55;;
34926;SDS011;21132;48.308;14.274;2022-07-23T02:18:02;7.63;;;6.82;;
34926;SDS011;21132;48.308;14.274;2022-07-23T02:20:28;12.45;;;7.95;;
34926;SDS011;21132;48.308;14.274;2022-07-23T02:22:54;8.18;;;6.97;;
34926;SDS011;21132;48.308;14.274;2022-07-23T02:25:20;13.10;;;7.72;;
34926;SDS011;21132;48.308;14.274;2022-07-23T02:27:46;9.30;;;6.88;;
34926;SDS011;21132;48.308;14.274;2022-07-23T02:30:11;8.52;;;6.68;;
34926;SDS011;21132;48.308;14.274;2022-07-23T02:32:37;8.68;;;7.78;;
34926;SDS011;21132;48.308;14.274;2022-07-23T02:35:04;8.65;;;7.78;;
34926;SDS011;21132;48.308;14.274;2022-07-23T02:37:31;10.35;;;7.68;;
34926;SDS011;21132;48.308;14.274;2022-07-23T02:39:57;10.38;;;7.28;;
34926;SDS011;21132;48.308;14.274;2022-07-23T02:42:23;9.00;;;6.72;;
34926;SDS011;21132;48.308;14.274;2022-07-23T02:44:49;8.48;;;7.22;;
34926;SDS011;21132;48.308;14.274;2022-07-23T02:47:15;7.85;;;6.97;;
34926;SDS011;21132;48.308;14.274;2022-07-23T02:49:41;8.55;;;7.60;;
34926;SDS011;21132;48.308;14.274;2022-07-23T02:52:07;9.25;;;7.25;;
34926;SDS011;21132;48.308;14.274;2022-07-23T02:54:35;8.18;;;6.97;;
34926;SDS011;21132;48.308;14.274;2022-07-23T02:57:02;7.78;;;6.53;;
34926;SDS011;21132;48.308;14.274;2022-07-23T02:59:28;10.65;;;7.18;;
34926;SDS011;21132;48.308;14.274;2022-07-23T03:01:54;9.55;;;7.75;;
34926;SDS011;21132;48.308;14.274;2022-07-23T03:04:20;10.55;;;8.18;;
34926;SDS011;21132;48.308;14.274;2022-07-23T03:06:46;13.50;;;8.02;;
34926;SDS011;21132;48.308;14.274;2022-07-23T03:09:12;9.73;;;7.72;;
34926;SDS011;21132;48.308;14.274;2022-07-23T03:11:37;8.85;;;7.72;;
34926;SDS011;21132;48.308;14.274;2022-07-23T03:14:03;8.90;;;6.95;;
34926;SDS011;21132;48.308;14.274;2022-07-23T03:16:29;8.95;;;7.45;;
34926;SDS011;21132;48.308;14.274;2022-07-23T03:18:55;8.48;;;7.43;;
34926;SDS011;21132;48.308;14.274;2022-07-23T03:21:21;10.32;;;8.10;;
34926;SDS011;21132;48.308;14.274;2022-07-23T03:23:47;9.80;;;8.02;;
34926;SDS011;21132;48.308;14.274;2022-07-23T03:26:12;11.10;;;7.60;;
34926;SDS011;21132;48.308;14.274;2022-07-23T03:28:38;8.63;;;7.40;;
34926;SDS011;21132;48.308;14.274;2022-07-23T03:31:04;13.40;;;7.70;;
34926;SDS011;21132;48.308;14.274;2022-07-23T03:33:30;8.02;;;7.22;;
34926;SDS011;21132;48.308;14.274;2022-07-23T03:35:56;8.52;;;7.35;;
34926;SDS011;21132;48.308;14.274;2022-07-23T03:38:21;12.93;;;8.02;;
34926;SDS011;21132;48.308;14.274;2022-07-23T03:40:47;9.00;;;7.50;;
34926;SDS011;21132;48.308;14.274;2022-07-23T03:43:13;10.10;;;8.02;;
34926;SDS011;21132;48.308;14.274;2022-07-23T03:45:39;10.07;;;8.20;;
34926;SDS011;21132;48.308;14.274;2022-07-23T03:48:05;10.30;;;8.00;;
34926;SDS011;21132;48.308;14.274;2022-07-23T03:50:30;9.93;;;8.65;;
34926;SDS011;21132;48.308;14.274;2022-07-23T03:52:56;9.90;;;8.80;;
34926;SDS011;21132;48.308;14.274;2022-07-23T03:55:22;9.68;;;8.07;;
34926;SDS011;21132;48.308;14.274;2022-07-23T03:57:48;9.65;;;8.13;;
34926;SDS011;21132;48.308;14.274;2022-07-23T04:00:14;8.95;;;8.05;;
34926;SDS011;21132;48.308;14.274;2022-07-23T04:02:40;11.63;;;8.25;;
34926;SDS011;21132;48.308;14.274;2022-07-23T04:05:06;8.30;;;7.35;;
34926;SDS011;21132;48.308;14.274;2022-07-23T04:07:32;9.27;;;7.82;;
34926;SDS011;21132;48.308;14.274;2022-07-23T04:09:58;8.40;;;7.28;;
34926;SDS011;21132;48.308;14.274;2022-07-23T04:12:24;11.80;;;9.57;;
34926;SDS011;21132;48.308;14.274;2022-07-23T04:14:50;8.80;;;7.45;;
34926;SDS011;21132;48.308;14.274;2022-07-23T04:17:15;10.07;;;8.23;;
34926;SDS011;21132;48.308;14.274;2022-07-23T04:19:41;10.68;;;8.30;;
34926;SDS011;21132;48.308;14.274;2022-07-23T04:22:09;12.80;;;8.82;;
34926;SDS011;21132;48.308;14.274;2022-07-23T04:24:37;12.70;;;9.02;;
34926;SDS011;21132;48.308;14.274;2022-07-23T04:27:03;10.15;;;8.60;;
34926;SDS011;21132;48.308;14.274;2022-07-23T04:29:30;7.93;;;7.13;;
34926;SDS011;21132;48.308;14.274;2022-07-23T04:31:55;9.45;;;7.68;;
34926;SDS011;21132;48.308;14.274;2022-07-23T04:34:21;8.48;;;7.68;;
34926;SDS011;21132;48.308;14.274;2022-07-23T04:36:47;9.00;;;7.93;;
34926;SDS011;21132;48.308;14.274;2022-07-23T04:39:14;9.48;;;7.30;;
34926;SDS011;21132;48.308;14.274;2022-07-23T04:41:39;10.75;;;7.50;;
34926;SDS011;21132;48.308;14.274;2022-07-23T04:44:05;8.43;;;7.60;;
34926;SDS011;21132;48.308;14.274;2022-07-23T04:46:31;11.77;;;8.15;;
34926;SDS011;21132;48.308;14.274;2022-07-23T04:48:57;9.48;;;8.23;;
34926;SDS011;21132;48.308;14.274;2022-07-23T04:51:23;12.38;;;7.82;;
34926;SDS011;21132;48.308;14.274;2022-07-23T04:53:49;9.38;;;6.20;;
34926;SDS011;21132;48.308;14.274;2022-07-23T04:56:15;10.10;;;5.80;;
34926;SDS011;21132;48.308;14.274;2022-07-23T04:58:41;6.53;;;5.80;;
34926;SDS011;21132;48.308;14.274;2022-07-23T05:01:07;7.07;;;5.60;;
34926;SDS011;21132;48.308;14.274;2022-07-23T05:03:33;5.90;;;5.30;;
34926;SDS011;21132;48.308;14.274;2022-07-23T05:05:58;6.10;;;5.30;;
34926;SDS011;21132;48.308;14.274;2022-07-23T05:08:24;7.40;;;5.82;;
34926;SDS011;21132;48.308;14.274;2022-07-23T05:10:50;6.07;;;5.47;;
34926;SDS011;21132;48.308;14.274;2022-07-23T05:13:16;6.15;;;5.40;;
34926;SDS011;21132;48.308;14.274;2022-07-23T05:15:43;5.60;;;5.10;;
34926;SDS011;21132;48.308;14.274;2022-07-23T05:18:09;6.47;;;5.60;;
34926;SDS011;21132;48.308;14.274;2022-07-23T05:20:35;5.78;;;5.05;;
34926;SDS011;21132;48.308;14.274;2022-07-23T05:23:01;6.80;;;5.70;;
34926;SDS011;21132;48.308;14.274;2022-07-23T05:25:27;7.47;;;5.20;;
34926;SDS011;21132;48.308;14.274;2022-07-23T05:27:53;9.63;;;6.07;;
34926;SDS011;21132;48.308;14.274;2022-07-23T05:30:19;6.50;;;5.75;;
34926;SDS011;21132;48.308;14.274;2022-07-23T05:32:45;7.78;;;5.28;;
34926;SDS011;21132;48.308;14.274;2022-07-23T05:35:11;7.00;;;5.78;;
34926;SDS011;21132;48.308;14.274;2022-07-23T05:37:37;7.65;;;5.32;;
34926;SDS011;21132;48.308;14.274;2022-07-23T05:40:04;10.10;;;5.43;;
34926;SDS011;21132;48.308;14.274;2022-07-23T05:42:36;7.25;;;5.30;;
34926;SDS011;21132;48.308;14.274;2022-07-23T05:45:03;5.13;;;4.32;;
34926;SDS011;21132;48.308;14.274;2022-07-23T05:47:38;9.13;;;4.65;;
34926;SDS011;21132;48.308;14.274;2022-07-23T05:50:12;6.25;;;4.95;;
34926;SDS011;21132;48.308;14.274;2022-07-23T05:52:39;6.07;;;4.97;;
34926;SDS011;21132;48.308;14.274;2022-07-23T05:55:06;13.60;;;6.72;;
34926;SDS011;21132;48.308;14.274;2022-07-23T05:57:32;9.02;;;4.93;;
34926;SDS011;21132;48.308;14.274;2022-07-23T05:59:58;5.93;;;4.32;;
34926;SDS011;21132;48.308;14.274;2022-07-23T06:02:23;5.20;;;4.35;;
34926;SDS011;21132;48.308;14.274;2022-07-23T06:04:49;4.82;;;4.22;;
34926;SDS011;21132;48.308;14.274;2022-07-23T06:07:15;5.10;;;3.92;;
34926;SDS011;21132;48.308;14.274;2022-07-23T06:09:41;5.55;;;4.20;;
34926;SDS011;21132;48.308;14.274;2022-07-23T06:12:07;5.20;;;4.00;;
34926;SDS011;21132;48.308;14.274;2022-07-23T06:14:33;6.90;;;4.88;;
34926;SDS011;21132;48.308;14.274;2022-07-23T06:16:58;5.15;;;4.03;;
34926;SDS011;21132;48.308;14.274;2022-07-23T06:19:24;6.47;;;3.90;;
34926;SDS011;21132;48.308;14.274;2022-07-23T06:21:51;5.18;;;4.18;;
34926;SDS011;21132;48.308;14.274;2022-07-23T06:24:16;11.80;;;4.00;;
34926;SDS011;21132;48.308;14.274;2022-07-23T06:26:42;5.57;;;4.05;;
34926;SDS011;21132;48.308;14.274;2022-07-23T06:29:08;5.28;;;4.57;;
34926;SDS011;21132;48.308;14.274;2022-07-23T06:31:37;5.18;;;4.63;;
34926;SDS011;21132;48.308;14.274;2022-07-23T06:34:03;5.72;;;4.60;;
34926;SDS011;21132;48.308;14.274;2022-07-23T06:36:29;8.00;;;4.50;;
34926;SDS011;21132;48.308;14.274;2022-07-23T06:38:54;6.55;;;4.53;;
34926;SDS011;21132;48.308;14.274;2022-07-23T06:41:20;5.40;;;4.68;;
34926;SDS011;21132;48.308;14.274;2022-07-23T06:43:47;6.97;;;4.65;;
34926;SDS011;21132;48.308;14.274;2022-07-23T06:46:13;4.35;;;3.95;;
34926;SDS011;21132;48.308;14.274;2022-07-23T06:48:39;5.70;;;4.65;;
34926;SDS011;21132;48.308;14.274;2022-07-23T06:51:05;5.57;;;4.15;;
34926;SDS011;21132;48.308;14.274;2022-07-23T06:53:31;5.13;;;4.63;;
34926;SDS011;21132;48.308;14.274;2022-07-23T06:55:57;5.35;;;4.22;;
34926;SDS011;21132;48.308;14.274;2022-07-23T06:58:23;5.97;;;4.05;;
34926;SDS011;21132;48.308;14.274;2022-07-23T07:00:48;5.68;;;4.70;;
34926;SDS011;21132;48.308;14.274;2022-07-23T07:03:16;6.63;;;4.25;;
34926;SDS011;21132;48.308;14.274;2022-07-23T07:05:42;13.80;;;4.20;;
34926;SDS011;21132;48.308;14.274;2022-07-23T07:08:08;4.97;;;4.43;;
34926;SDS011;21132;48.308;14.274;2022-07-23T07:10:33;12.93;;;4.10;;
34926;SDS011;21132;48.308;14.274;2022-07-23T07:12:59;5.93;;;4.55;;
34926;SDS011;21132;48.308;14.274;2022-07-23T07:15:25;11.38;;;4.30;;
34926;SDS011;21132;48.308;14.274;2022-07-23T07:17:51;13.88;;;3.97;;
34926;SDS011;21132;48.308;14.274;2022-07-23T07:20:17;5.68;;;3.88;;
34926;SDS011;21132;48.308;14.274;2022-07-23T07:22:42;6.40;;;4.80;;
34926;SDS011;21132;48.308;14.274;2022-07-23T07:25:08;5.20;;;4.07;;
34926;SDS011;21132;48.308;14.274;2022-07-23T07:27:34;5.82;;;4.30;;
34926;SDS011;21132;48.308;14.274;2022-07-23T07:30:00;6.50;;;4.25;;
34926;SDS011;21132;48.308;14.274;2022-07-23T07:32:26;6.53;;;4.20;;
34926;SDS011;21132;48.308;14.274;2022-07-23T07:34:52;9.52;;;4.40;;
34926;SDS011;21132;48.308;14.274;2022-07-23T07:37:18;6.43;;;4.68;;
34926;SDS011;21132;48.308;14.274;2022-07-23T07:39:43;5.63;;;4.82;;
34926;SDS011;21132;48.308;14.274;2022-07-23T07:42:09;6.38;;;4.53;;
34926;SDS011;21132;48.308;14.274;2022-07-23T07:44:35;6.22;;;4.50;;
34926;SDS011;21132;48.308;14.274;2022-07-23T07:47:01;6.13;;;4.75;;
34926;SDS011;21132;48.308;14.274;2022-07-23T07:49:27;9.50;;;5.25;;
34926;SDS011;21132;48.308;14.274;2022-07-23T07:51:52;5.75;;;4.70;;
34926;SDS011;21132;48.308;14.274;2022-07-23T07:54:18;8.18;;;4.70;;
34926;SDS011;21132;48.308;14.274;2022-07-23T07:56:44;8.27;;;4.90;;
34926;SDS011;21132;48.308;14.274;2022-07-23T07:59:10;6.57;;;4.53;;
34926;SDS011;21132;48.308;14.274;2022-07-23T08:01:36;6.43;;;4.68;;
34926;SDS011;21132;48.308;14.274;2022-07-23T08:04:02;5.40;;;4.78;;
34926;SDS011;21132;48.308;14.274;2022-07-23T08:06:28;8.90;;;5.10;;
34926;SDS011;21132;48.308;14.274;2022-07-23T08:08:54;7.80;;;4.45;;
34926;SDS011;21132;48.308;14.274;2022-07-23T08:11:19;10.35;;;5.53;;
34926;SDS011;21132;48.308;14.274;2022-07-23T08:13:45;5.25;;;4.05;;
34926;SDS011;21132;48.308;14.274;2022-07-23T08:16:13;6.45;;;4.35;;
34926;SDS011;21132;48.308;14.274;2022-07-23T08:18:38;4.90;;;4.38;;
34926;SDS011;21132;48.308;14.274;2022-07-23T08:21:04;7.50;;;4.05;;
34926;SDS011;21132;48.308;14.274;2022-07-23T08:23:30;7.80;;;4.30;;
34926;SDS011;21132;48.308;14.274;2022-07-23T08:25:56;6.93;;;4.82;;
34926;SDS011;21132;48.308;14.274;2022-07-23T08:28:24;5.82;;;4.28;;
34926;SDS011;21132;48.308;14.274;2022-07-23T08:30:50;4.50;;;4.05;;
34926;SDS011;21132;48.308;14.274;2022-07-23T08:33:17;9.07;;;4.22;;
34926;SDS011;21132;48.308;14.274;2022-07-23T08:35:44;4.47;;;4.05;;
34926;SDS011;21132;48.308;14.274;2022-07-23T08:38:12;4.75;;;4.10;;
34926;SDS011;21132;48.308;14.274;2022-07-23T08:40:41;6.07;;;3.75;;
34926;SDS011;21132;48.308;14.274;2022-07-23T08:43:10;11.93;;;4.88;;
34926;SDS011;21132;48.308;14.274;2022-07-23T08:45:41;13.63;;;8.50;;
34926;SDS011;21132;48.308;14.274;2022-07-23T08:48:11;10.50;;;7.70;;
34926;SDS011;21132;48.308;14.274;2022-07-23T08:50:43;14.80;;;11.40;;
34926;SDS011;21132;48.308;14.274;2022-07-23T08:53:10;15.77;;;13.43;;
34926;SDS011;21132;48.308;14.274;2022-07-23T08:55:36;23.05;;;13.90;;
34926;SDS011;21132;48.308;14.274;2022-07-23T08:58:02;10.07;;;7.60;;
34926;SDS011;21132;48.308;14.274;2022-07-23T09:00:28;8.23;;;5.63;;
34926;SDS011;21132;48.308;14.274;2022-07-23T09:02:55;10.05;;;8.27;;
34926;SDS011;21132;48.308;14.274;2022-07-23T09:05:22;9.52;;;6.97;;
34926;SDS011;21132;48.308;14.274;2022-07-23T09:10:46;8.65;;;6.07;;
34926;SDS011;21132;48.308;14.274;2022-07-23T09:15:58;5.78;;;5.18;;
34926;SDS011;21132;48.308;14.274;2022-07-23T09:21:25;10.57;;;6.13;;
34926;SDS011;21132;48.308;14.274;2022-07-23T09:24:00;15.10;;;12.57;;
34926;SDS011;21132;48.308;14.274;2022-07-23T09:31:59;14.05;;;11.00;;
34926;SDS011;21132;48.308;14.274;2022-07-23T09:34:34;13.10;;;8.98;;
34926;SDS011;21132;48.308;14.274;2022-07-23T09:37:11;9.02;;;7.95;;
34926;SDS011;21132;48.308;14.274;2022-07-23T09:39:39;7.10;;;6.40;;
34926;SDS011;21132;48.308;14.274;2022-07-23T09:42:19;5.70;;;5.05;;
34926;SDS011;21132;48.308;14.274;2022-07-23T09:44:47;5.00;;;4.28;;
34926;SDS011;21132;48.308;14.274;2022-07-23T09:47:14;5.70;;;3.70;;
34926;SDS011;21132;48.308;14.274;2022-07-23T09:49:40;5.53;;;4.55;;
34926;SDS011;21132;48.308;14.274;2022-07-23T09:52:34;6.00;;;4.00;;
34926;SDS011;21132;48.308;14.274;2022-07-23T09:55:03;4.10;;;3.70;;
34926;SDS011;21132;48.308;14.274;2022-07-23T09:57:31;6.10;;;3.53;;
34926;SDS011;21132;48.308;14.274;2022-07-23T09:59:58;4.80;;;3.90;;
34926;SDS011;21132;48.308;14.274;2022-07-23T10:02:28;7.03;;;3.70;;
34926;SDS011;21132;48.308;14.274;2022-07-23T10:04:58;9.10;;;4.00;;
34926;SDS011;21132;48.308;14.274;2022-07-23T10:07:27;6.55;;;3.88;;
34926;SDS011;21132;48.308;14.274;2022-07-23T10:09:58;3.97;;;3.58;;
34926;SDS011;21132;48.308;14.274;2022-07-23T10:12:26;3.10;;;2.80;;
34926;SDS011;21132;48.308;14.274;2022-07-23T10:15:11;5.43;;;3.72;;
34926;SDS011;21132;48.308;14.274;2022-07-23T10:17:37;9.00;;;4.88;;
34926;SDS011;21132;48.308;14.274;2022-07-23T10:20:03;12.93;;;8.93;;
34926;SDS011;21132;48.308;14.274;2022-07-23T10:22:34;11.60;;;6.55;;
34926;SDS011;21132;48.308;14.274;2022-07-23T10:30:40;8.13;;;3.35;;
34926;SDS011;21132;48.308;14.274;2022-07-23T10:33:27;5.03;;;3.20;;
34926;SDS011;21132;48.308;14.274;2022-07-23T10:36:23;5.65;;;3.75;;
34926;SDS011;21132;48.308;14.274;2022-07-23T10:39:08;5.65;;;3.88;;
34926;SDS011;21132;48.308;14.274;2022-07-23T10:41:48;9.68;;;4.93;;
34926;SDS011;21132;48.308;14.274;2022-07-23T10:44:16;4.03;;;2.50;;
34926;SDS011;21132;48.308;14.274;2022-07-23T10:46:58;5.88;;;2.70;;
34926;SDS011;21132;48.308;14.274;2022-07-23T10:49:35;3.70;;;2.63;;
34926;SDS011;21132;48.308;14.274;2022-07-23T10:54:40;4.72;;;3.00;;
34926;SDS011;21132;48.308;14.274;2022-07-23T10:57:07;5.70;;;3.10;;
34926;SDS011;21132;48.308;14.274;2022-07-23T11:02:40;3.50;;;2.80;;
34926;SDS011;21132;48.308;14.274;2022-07-23T11:05:11;5.10;;;3.08;;
34926;SDS011;21132;48.308;14.274;2022-07-23T11:08:26;4.30;;;3.13;;
34926;SDS011;21132;48.308;14.274;2022-07-23T11:16:06;6.95;;;3.42;;
34926;SDS011;21132;48.308;14.274;2022-07-23T11:21:40;3.97;;;3.58;;
34926;SDS011;21132;48.308;14.274;2022-07-23T11:24:34;3.80;;;3.35;;
34926;SDS011;21132;48.308;14.274;2022-07-23T11:26:54;7.65;;;4.30;;
34926;SDS011;21132;48.308;14.274;2022-07-23T11:32:00;13.20;;;3.80;;
34926;SDS011;21132;48.308;14.274;2022-07-23T11:37:07;5.95;;;3.72;;
34926;SDS011;21132;48.308;14.274;2022-07-23T11:39:35;5.32;;;3.90;;
34926;SDS011;21132;48.308;14.274;2022-07-23T11:42:01;6.50;;;3.85;;
34926;SDS011;21132;48.308;14.274;2022-07-23T11:44:33;6.63;;;3.80;;
34926;SDS011;21132;48.308;14.274;2022-07-23T11:47:05;4.50;;;4.10;;
34926;SDS011;21132;48.308;14.274;2022-07-23T11:49:33;5.60;;;3.90;;
34926;SDS011;21132;48.308;14.274;2022-07-23T11:52:03;5.32;;;3.70;;
34926;SDS011;21132;48.308;14.274;2022-07-23T11:54:32;4.85;;;3.50;;
34926;SDS011;21132;48.308;14.274;2022-07-23T11:57:01;4.03;;;3.25;;
34926;SDS011;21132;48.308;14.274;2022-07-23T11:59:29;4.43;;;4.03;;
34926;SDS011;21132;48.308;14.274;2022-07-23T12:02:02;6.68;;;3.95;;
34926;SDS011;21132;48.308;14.274;2022-07-23T12:07:24;8.25;;;7.45;;
34926;SDS011;21132;48.308;14.274;2022-07-23T12:09:50;10.27;;;8.27;;
34926;SDS011;21132;48.308;14.274;2022-07-23T12:12:16;5.00;;;4.45;;
34926;SDS011;21132;48.308;14.274;2022-07-23T12:14:55;5.97;;;4.40;;
34926;SDS011;21132;48.308;14.274;2022-07-23T12:17:29;5.55;;;4.03;;
34926;SDS011;21132;48.308;14.274;2022-07-23T12:19:57;5.53;;;4.03;;
34926;SDS011;21132;48.308;14.274;2022-07-23T12:22:33;7.30;;;4.50;;
34926;SDS011;21132;48.308;14.274;2022-07-23T12:25:08;5.22;;;4.07;;
34926;SDS011;21132;48.308;14.274;2022-07-23T12:32:50;5.25;;;3.67;;
34926;SDS011;21132;48.308;14.274;2022-07-23T12:35:17;5.68;;;4.20;;
34926;SDS011;21132;48.308;14.274;2022-07-23T12:37:44;5.07;;;4.07;;
34926;SDS011;21132;48.308;14.274;2022-07-23T12:40:47;6.65;;;4.00;;
34926;SDS011;21132;48.308;14.274;2022-07-23T12:43:08;5.80;;;3.92;;
34926;SDS011;21132;48.308;14.274;2022-07-23T12:46:10;5.43;;;3.95;;
34926;SDS011;21132;48.308;14.274;2022-07-23T12:51:14;8.95;;;3.85;;
34926;SDS011;21132;48.308;14.274;2022-07-23T12:53:42;10.35;;;3.72;;
34926;SDS011;21132;48.308;14.274;2022-07-23T12:56:13;5.05;;;4.00;;
34926;SDS011;21132;48.308;14.274;2022-07-23T13:03:59;51.15;;;8.05;;
34926;SDS011;21132;48.308;14.274;2022-07-23T13:06:37;8.40;;;7.45;;
34926;SDS011;21132;48.308;14.274;2022-07-23T13:09:05;5.07;;;4.07;;
34926;SDS011;21132;48.308;14.274;2022-07-23T13:11:32;4.38;;;3.67;;
34926;SDS011;21132;48.308;14.274;2022-07-23T13:13:58;5.82;;;4.85;;
34926;SDS011;21132;48.308;14.274;2022-07-23T13:16:28;9.52;;;5.80;;
34926;SDS011;21132;48.308;14.274;2022-07-23T13:18:55;6.63;;;4.50;;
34926;SDS011;21132;48.308;14.274;2022-07-23T13:21:21;6.85;;;4.18;;
34926;SDS011;21132;48.308;14.274;2022-07-23T13:23:49;5.13;;;4.20;;
34926;SDS011;21132;48.308;14.274;2022-07-23T13:26:16;7.10;;;4.07;;
34926;SDS011;21132;48.308;14.274;2022-07-23T13:28:42;4.28;;;3.70;;
34926;SDS011;21132;48.308;14.274;2022-07-23T13:31:08;4.28;;;3.85;;
34926;SDS011;21132;48.308;14.274;2022-07-23T13:33:34;5.18;;;4.38;;
34926;SDS011;21132;48.308;14.274;2022-07-23T13:36:00;5.50;;;3.83;;
34926;SDS011;21132;48.308;14.274;2022-07-23T13:38:26;4.18;;;3.60;;
34926;SDS011;21132;48.308;14.274;2022-07-23T13:40:53;3.70;;;3.40;;
34926;SDS011;21132;48.308;14.274;2022-07-23T13:43:20;5.63;;;5.03;;
34926;SDS011;21132;48.308;14.274;2022-07-23T13:45:48;5.55;;;4.82;;
34926;SDS011;21132;48.308;14.274;2022-07-23T13:48:15;4.50;;;4.05;;
34926;SDS011;21132;48.308;14.274;2022-07-23T13:50:41;17.15;;;4.25;;
34926;SDS011;21132;48.308;14.274;2022-07-23T13:53:09;6.03;;;3.47;;
34926;SDS011;21132;48.308;14.274;2022-07-23T13:55:37;4.03;;;3.67;;
34926;SDS011;21132;48.308;14.274;2022-07-23T13:58:04;4.53;;;4.13;;
34926;SDS011;21132;48.308;14.274;2022-07-23T14:00:31;5.47;;;4.10;;
34926;SDS011;21132;48.308;14.274;2022-07-23T14:02:59;4.90;;;3.80;;
34926;SDS011;21132;48.308;14.274;2022-07-23T14:05:25;7.95;;;3.75;;
34926;SDS011;21132;48.308;14.274;2022-07-23T14:07:51;4.13;;;3.72;;
34926;SDS011;21132;48.308;14.274;2022-07-23T14:10:17;5.05;;;3.72;;
34926;SDS011;21132;48.308;14.274;2022-07-23T14:12:45;4.82;;;3.95;;
34926;SDS011;21132;48.308;14.274;2022-07-23T14:15:12;6.35;;;4.25;;
34926;SDS011;21132;48.308;14.274;2022-07-23T14:17:39;5.15;;;3.92;;
34926;SDS011;21132;48.308;14.274;2022-07-23T14:20:06;5.22;;;3.90;;
34926;SDS011;21132;48.308;14.274;2022-07-23T14:22:33;6.68;;;4.10;;
34926;SDS011;21132;48.308;14.274;2022-07-23T14:25:00;4.43;;;4.00;;
34926;SDS011;21132;48.308;14.274;2022-07-23T14:27:27;4.78;;;3.45;;
34926;SDS011;21132;48.308;14.274;2022-07-23T14:29:53;4.60;;;3.90;;
34926;SDS011;21132;48.308;14.274;2022-07-23T14:32:19;4.13;;;3.72;;
34926;SDS011;21132;48.308;14.274;2022-07-23T14:34:45;4.18;;;3.78;;
34926;SDS011;21132;48.308;14.274;2022-07-23T14:37:11;5.20;;;4.07;;
34926;SDS011;21132;48.308;14.274;2022-07-23T14:39:38;3.95;;;3.58;;
34926;SDS011;21132;48.308;14.274;2022-07-23T14:42:05;4.93;;;4.15;;
34926;SDS011;21132;48.308;14.274;2022-07-23T14:44:32;4.07;;;3.72;;
34926;SDS011;21132;48.308;14.274;2022-07-23T14:46:58;4.18;;;3.80;;
34926;SDS011;21132;48.308;14.274;2022-07-23T14:49:25;4.45;;;4.00;;
34926;SDS011;21132;48.308;14.274;2022-07-23T14:51:51;3.83;;;3.53;;
34926;SDS011;21132;48.308;14.274;2022-07-23T14:54:17;3.90;;;3.50;;
34926;SDS011;21132;48.308;14.274;2022-07-23T14:56:44;4.82;;;3.67;;
34926;SDS011;21132;48.308;14.274;2022-07-23T14:59:11;4.70;;;3.67;;
34926;SDS011;21132;48.308;14.274;2022-07-23T15:01:37;9.85;;;3.60;;
34926;SDS011;21132;48.308;14.274;2022-07-23T15:04:03;4.30;;;3.70;;
34926;SDS011;21132;48.308;14.274;2022-07-23T15:06:30;4.47;;;3.80;;
34926;SDS011;21132;48.308;14.274;2022-07-23T15:08:56;4.53;;;3.80;;
34926;SDS011;21132;48.308;14.274;2022-07-23T15:11:22;4.63;;;4.05;;
34926;SDS011;21132;48.308;14.274;2022-07-23T15:13:48;6.80;;;4.00;;
34926;SDS011;21132;48.308;14.274;2022-07-23T15:16:14;4.10;;;3.67;;
34926;SDS011;21132;48.308;14.274;2022-07-23T15:18:40;3.80;;;3.50;;
34926;SDS011;21132;48.308;14.274;2022-07-23T15:21:05;4.40;;;3.63;;
34926;SDS011;21132;48.308;14.274;2022-07-23T15:23:31;4.88;;;3.92;;
34926;SDS011;21132;48.308;14.274;2022-07-23T15:25:57;7.15;;;4.13;;
34926;SDS011;21132;48.308;14.274;2022-07-23T15:28:23;4.18;;;3.83;;